CEB1024 RPLL-RPVE
Flight info
| Callsign | CEB1024 |
|---|---|
| Flight time | 0h 35m |
| Altitude | 25000 |
| Route | VERDE2V VERDE W24 TAPER TAPER7B |
| Aircraft | A21N/M-SDE3FGHIRWY/LB1 |
Departure
| Time | 2026-04-30 06:40 |
|---|---|
| Airport | Ninoy Aquino International Airport (RPLL) |
Arrival
| Time | 2026-04-30 07:15 |
|---|---|
| Airport | Godofredo P. Ramos Airport (RPVE) |
| Time | Latitude | Longitude | Altitude | Speed | Heading |
|---|---|---|---|---|---|
| 2026-04-30 06:22 | 14.52296 | 121.00899 | 82 ft | 0 kts | 44° |
| 2026-04-30 06:29 | 14.52290 | 121.00893 | 82 ft | 2 kts | 44° |
| 2026-04-30 06:30 | 14.52279 | 121.00882 | 82 ft | 2 kts | 44° |
| 2026-04-30 06:30 | 14.52268 | 121.00871 | 82 ft | 2 kts | 44° |
| 2026-04-30 06:30 | 14.52257 | 121.00861 | 82 ft | 2 kts | 44° |
| 2026-04-30 06:30 | 14.52246 | 121.00850 | 82 ft | 2 kts | 44° |
| 2026-04-30 06:31 | 14.52235 | 121.00839 | 82 ft | 2 kts | 44° |
| 2026-04-30 06:31 | 14.52228 | 121.00832 | 82 ft | 2 kts | 44° |
| 2026-04-30 06:31 | 14.52215 | 121.00825 | 82 ft | 2 kts | 8° |
| 2026-04-30 06:31 | 14.52200 | 121.00826 | 82 ft | 2 kts | 341° |
| 2026-04-30 06:32 | 14.52188 | 121.00832 | 82 ft | 0 kts | 318° |
| 2026-04-30 06:32 | 14.52184 | 121.00836 | 82 ft | 1 kts | 314° |
| 2026-04-30 06:32 | 14.52183 | 121.00838 | 82 ft | 0 kts | 314° |
| 2026-04-30 06:35 | 14.52187 | 121.00833 | 82 ft | 1 kts | 315° |
| 2026-04-30 06:35 | 14.52198 | 121.00822 | 82 ft | 3 kts | 316° |
| 2026-04-30 06:36 | 14.52219 | 121.00802 | 82 ft | 4 kts | 318° |
| 2026-04-30 06:36 | 14.52248 | 121.00773 | 82 ft | 6 kts | 314° |
| 2026-04-30 06:36 | 14.52283 | 121.00736 | 82 ft | 7 kts | 314° |
| 2026-04-30 06:36 | 14.52326 | 121.00692 | 82 ft | 9 kts | 314° |
| 2026-04-30 06:37 | 14.52374 | 121.00642 | 82 ft | 10 kts | 315° |
| 2026-04-30 06:37 | 14.52426 | 121.00588 | 82 ft | 7 kts | 315° |
| 2026-04-30 06:37 | 14.52466 | 121.00547 | 82 ft | 8 kts | 314° |
| 2026-04-30 06:37 | 14.52505 | 121.00506 | 82 ft | 7 kts | 314° |
| 2026-04-30 06:38 | 14.52542 | 121.00462 | 82 ft | 8 kts | 297° |
| 2026-04-30 06:38 | 14.52545 | 121.00395 | 82 ft | 10 kts | 264° |
| 2026-04-30 06:38 | 14.52539 | 121.00322 | 82 ft | 9 kts | 266° |
| 2026-04-30 06:38 | 14.52533 | 121.00259 | 82 ft | 7 kts | 251° |
| 2026-04-30 06:39 | 14.52502 | 121.00253 | 82 ft | 6 kts | 135° |
| 2026-04-30 06:39 | 14.52470 | 121.00290 | 82 ft | 7 kts | 131° |
| 2026-04-30 06:39 | 14.52430 | 121.00335 | 82 ft | 9 kts | 133° |
| 2026-04-30 06:39 | 14.52374 | 121.00394 | 82 ft | 17 kts | 135° |
| 2026-04-30 06:40 | 14.52159 | 121.00618 | 82 ft | 85 kts | 135° |
| 2026-04-30 06:40 | 14.51545 | 121.01253 | 90 ft | 161 kts | 132° |
| 2026-04-30 06:40 | 14.50697 | 121.02127 | 606 ft | 182 kts | 133° |
| 2026-04-30 06:40 | 14.49780 | 121.03074 | 1431 ft | 194 kts | 132° |
| 2026-04-30 06:41 | 14.48852 | 121.04040 | 2443 ft | 188 kts | 132° |
| 2026-04-30 06:41 | 14.47915 | 121.05012 | 2970 ft | 198 kts | 132° |
| 2026-04-30 06:41 | 14.46895 | 121.06072 | 3320 ft | 219 kts | 132° |
| 2026-04-30 06:41 | 14.45777 | 121.07233 | 3741 ft | 238 kts | 133° |
| 2026-04-30 06:42 | 14.44558 | 121.08483 | 4190 ft | 256 kts | 136° |
| 2026-04-30 06:42 | 14.42971 | 121.09425 | 4638 ft | 276 kts | 165° |
| 2026-04-30 06:42 | 14.41043 | 121.09438 | 5362 ft | 284 kts | 191° |
| 2026-04-30 06:42 | 14.39125 | 121.08939 | 6203 ft | 285 kts | 194° |
| 2026-04-30 06:43 | 14.37204 | 121.08429 | 6987 ft | 288 kts | 193° |
| 2026-04-30 06:43 | 14.35238 | 121.07925 | 7793 ft | 291 kts | 192° |
| 2026-04-30 06:43 | 14.33790 | 121.07563 | 8365 ft | 293 kts | 192° |
| 2026-04-30 06:43 | 14.31797 | 121.07072 | 9125 ft | 296 kts | 191° |
| 2026-04-30 06:44 | 14.29792 | 121.06570 | 9867 ft | 300 kts | 194° |
| 2026-04-30 06:44 | 14.27819 | 121.05819 | 10530 ft | 308 kts | 203° |
| 2026-04-30 06:44 | 14.25914 | 121.04702 | 10897 ft | 326 kts | 212° |
| 2026-04-30 06:44 | 14.23970 | 121.03346 | 11196 ft | 343 kts | 213° |
| 2026-04-30 06:45 | 14.21968 | 121.01907 | 11623 ft | 355 kts | 214° |
| 2026-04-30 06:45 | 14.19924 | 121.00439 | 12129 ft | 363 kts | 213° |
| 2026-04-30 06:45 | 14.17830 | 120.98946 | 12659 ft | 368 kts | 213° |
| 2026-04-30 06:45 | 14.15693 | 120.97430 | 13254 ft | 372 kts | 213° |
| 2026-04-30 06:46 | 14.13548 | 120.95912 | 13828 ft | 375 kts | 213° |
| 2026-04-30 06:46 | 14.11417 | 120.94408 | 14402 ft | 378 kts | 213° |
| 2026-04-30 06:46 | 14.09234 | 120.92870 | 14970 ft | 380 kts | 213° |
| 2026-04-30 06:46 | 14.07052 | 120.91339 | 15536 ft | 382 kts | 212° |
| 2026-04-30 06:47 | 14.04629 | 120.90166 | 16057 ft | 382 kts | 193° |
| 2026-04-30 06:47 | 14.01989 | 120.89960 | 16588 ft | 381 kts | 172° |
| 2026-04-30 06:47 | 13.99403 | 120.90527 | 17130 ft | 380 kts | 164° |
| 2026-04-30 06:47 | 13.96832 | 120.91214 | 17612 ft | 383 kts | 164° |
| 2026-04-30 06:48 | 13.94247 | 120.91902 | 18076 ft | 387 kts | 164° |
| 2026-04-30 06:48 | 13.91625 | 120.92592 | 18444 ft | 393 kts | 165° |
| 2026-04-30 06:48 | 13.88911 | 120.93298 | 18754 ft | 401 kts | 165° |
| 2026-04-30 06:48 | 13.86172 | 120.94008 | 19132 ft | 404 kts | 165° |
| 2026-04-30 06:49 | 13.83428 | 120.94714 | 19575 ft | 406 kts | 165° |
| 2026-04-30 06:49 | 13.80707 | 120.95411 | 20000 ft | 408 kts | 165° |
| 2026-04-30 06:49 | 13.77919 | 120.96127 | 20409 ft | 411 kts | 165° |
| 2026-04-30 06:49 | 13.75121 | 120.96842 | 20786 ft | 413 kts | 165° |
| 2026-04-30 06:50 | 13.72330 | 120.97558 | 21172 ft | 416 kts | 165° |
| 2026-04-30 06:50 | 13.69489 | 120.98284 | 21554 ft | 418 kts | 165° |
| 2026-04-30 06:50 | 13.66698 | 120.98999 | 22010 ft | 417 kts | 165° |
| 2026-04-30 06:50 | 13.63844 | 120.99730 | 22548 ft | 415 kts | 165° |
| 2026-04-30 06:51 | 13.61041 | 121.00448 | 23066 ft | 414 kts | 165° |
| 2026-04-30 06:51 | 13.58259 | 121.01159 | 23541 ft | 414 kts | 165° |
| 2026-04-30 06:51 | 13.55452 | 121.01878 | 23948 ft | 415 kts | 165° |
| 2026-04-30 06:51 | 13.52637 | 121.02678 | 24317 ft | 417 kts | 161° |
| 2026-04-30 06:52 | 13.49945 | 121.03797 | 24691 ft | 419 kts | 154° |
| 2026-04-30 06:52 | 13.47407 | 121.05237 | 24892 ft | 420 kts | 148° |
| 2026-04-30 06:52 | 13.44975 | 121.06898 | 24909 ft | 420 kts | 145° |
| 2026-04-30 06:52 | 13.42562 | 121.08615 | 24928 ft | 421 kts | 145° |
| 2026-04-30 06:53 | 13.40160 | 121.10329 | 24943 ft | 420 kts | 145° |
| 2026-04-30 06:53 | 13.37724 | 121.12055 | 24953 ft | 420 kts | 145° |
| 2026-04-30 06:53 | 13.35319 | 121.13749 | 24964 ft | 420 kts | 145° |
| 2026-04-30 06:53 | 13.32902 | 121.15446 | 24970 ft | 421 kts | 145° |
| 2026-04-30 06:54 | 13.30495 | 121.17134 | 24968 ft | 421 kts | 145° |
| 2026-04-30 06:54 | 13.28077 | 121.18830 | 24963 ft | 421 kts | 145° |
| 2026-04-30 06:54 | 13.25656 | 121.20528 | 24957 ft | 420 kts | 145° |
| 2026-04-30 06:54 | 13.23225 | 121.22232 | 24945 ft | 420 kts | 145° |
| 2026-04-30 06:55 | 13.20815 | 121.23921 | 24930 ft | 420 kts | 145° |
| 2026-04-30 06:55 | 13.18409 | 121.25608 | 24918 ft | 421 kts | 145° |
| 2026-04-30 06:55 | 13.15975 | 121.27312 | 24920 ft | 421 kts | 145° |
| 2026-04-30 06:55 | 13.13535 | 121.29022 | 24923 ft | 420 kts | 145° |
| 2026-04-30 06:56 | 13.11116 | 121.30716 | 24926 ft | 421 kts | 145° |
| 2026-04-30 06:56 | 13.08712 | 121.32399 | 24928 ft | 420 kts | 145° |
| 2026-04-30 06:56 | 13.06290 | 121.34096 | 24930 ft | 421 kts | 145° |
| 2026-04-30 06:56 | 13.03862 | 121.35795 | 24930 ft | 421 kts | 145° |
| 2026-04-30 06:57 | 13.01464 | 121.37473 | 24930 ft | 420 kts | 145° |
| 2026-04-30 06:57 | 12.99036 | 121.39172 | 24926 ft | 420 kts | 145° |
| 2026-04-30 06:57 | 12.96626 | 121.40858 | 24925 ft | 420 kts | 145° |
| 2026-04-30 06:57 | 12.94208 | 121.42549 | 24920 ft | 420 kts | 145° |
| 2026-04-30 06:58 | 12.91793 | 121.44238 | 24913 ft | 420 kts | 145° |
| 2026-04-30 06:58 | 12.89377 | 121.45927 | 24906 ft | 420 kts | 145° |
| 2026-04-30 06:58 | 12.86941 | 121.47629 | 24900 ft | 420 kts | 145° |
| 2026-04-30 06:58 | 12.84530 | 121.49313 | 24562 ft | 421 kts | 145° |
| 2026-04-30 06:59 | 12.82083 | 121.51022 | 23630 ft | 428 kts | 144° |
| 2026-04-30 06:59 | 12.79629 | 121.52734 | 22714 ft | 430 kts | 144° |
| 2026-04-30 06:59 | 12.77155 | 121.54459 | 21903 ft | 430 kts | 144° |
| 2026-04-30 06:59 | 12.74649 | 121.56209 | 21108 ft | 430 kts | 144° |
| 2026-04-30 07:00 | 12.72170 | 121.57938 | 20423 ft | 427 kts | 144° |
| 2026-04-30 07:00 | 12.69723 | 121.59646 | 19788 ft | 423 kts | 144° |
| 2026-04-30 07:00 | 12.67326 | 121.61320 | 19181 ft | 418 kts | 144° |
| 2026-04-30 07:00 | 12.64943 | 121.62982 | 18618 ft | 413 kts | 144° |
| 2026-04-30 07:01 | 12.62586 | 121.64626 | 18023 ft | 408 kts | 143° |
| 2026-04-30 07:01 | 12.60272 | 121.66238 | 17470 ft | 403 kts | 144° |
| 2026-04-30 07:01 | 12.57962 | 121.67848 | 16888 ft | 399 kts | 144° |
| 2026-04-30 07:01 | 12.55683 | 121.69437 | 16329 ft | 395 kts | 143° |
| 2026-04-30 07:02 | 12.53396 | 121.71031 | 15742 ft | 392 kts | 143° |
| 2026-04-30 07:02 | 12.51169 | 121.72584 | 15173 ft | 388 kts | 143° |
| 2026-04-30 07:02 | 12.48955 | 121.74126 | 14608 ft | 385 kts | 143° |
| 2026-04-30 07:02 | 12.46731 | 121.75674 | 14063 ft | 382 kts | 143° |
| 2026-04-30 07:03 | 12.44548 | 121.77194 | 13492 ft | 379 kts | 143° |
| 2026-04-30 07:03 | 12.42389 | 121.78696 | 12917 ft | 376 kts | 143° |
| 2026-04-30 07:03 | 12.40221 | 121.80206 | 12353 ft | 373 kts | 143° |
| 2026-04-30 07:03 | 12.38055 | 121.81627 | 11785 ft | 371 kts | 150° |
| 2026-04-30 07:04 | 12.35555 | 121.82333 | 11212 ft | 374 kts | 173° |
| 2026-04-30 07:04 | 12.32980 | 121.82072 | 10889 ft | 367 kts | 189° |
| 2026-04-30 07:04 | 12.30542 | 121.81524 | 10687 ft | 354 kts | 190° |
| 2026-04-30 07:04 | 12.28161 | 121.80981 | 10481 ft | 341 kts | 190° |
| 2026-04-30 07:05 | 12.23673 | 121.79977 | 10116 ft | 318 kts | 189° |
| 2026-04-30 07:05 | 12.21527 | 121.79505 | 9905 ft | 309 kts | 189° |
| 2026-04-30 07:05 | 12.19440 | 121.79050 | 9497 ft | 307 kts | 189° |
| 2026-04-30 07:06 | 12.17335 | 121.78593 | 9097 ft | 305 kts | 189° |
| 2026-04-30 07:06 | 12.15283 | 121.78149 | 8709 ft | 303 kts | 189° |
| 2026-04-30 07:06 | 12.13210 | 121.77698 | 8319 ft | 300 kts | 189° |
| 2026-04-30 07:06 | 12.11167 | 121.77254 | 7938 ft | 298 kts | 189° |
| 2026-04-30 07:07 | 12.09139 | 121.76816 | 7558 ft | 296 kts | 189° |
| 2026-04-30 07:07 | 12.07147 | 121.76385 | 7188 ft | 294 kts | 189° |
| 2026-04-30 07:07 | 12.05125 | 121.75946 | 6807 ft | 292 kts | 189° |
| 2026-04-30 07:07 | 12.03161 | 121.75520 | 6441 ft | 290 kts | 189° |
| 2026-04-30 07:08 | 12.01189 | 121.75094 | 6070 ft | 288 kts | 189° |
| 2026-04-30 07:08 | 11.99219 | 121.74667 | 5703 ft | 286 kts | 189° |
| 2026-04-30 07:08 | 11.97273 | 121.74245 | 5340 ft | 285 kts | 189° |
| 2026-04-30 07:08 | 11.95333 | 121.73825 | 4977 ft | 283 kts | 189° |
| 2026-04-30 07:09 | 11.93397 | 121.73405 | 4618 ft | 281 kts | 189° |
| 2026-04-30 07:09 | 11.91489 | 121.73113 | 4246 ft | 276 kts | 175° |
| 2026-04-30 07:09 | 11.89710 | 121.73551 | 4105 ft | 256 kts | 151° |
| 2026-04-30 07:09 | 11.88141 | 121.74354 | 4066 ft | 240 kts | 148° |
| 2026-04-30 07:10 | 11.86685 | 121.75137 | 4017 ft | 226 kts | 148° |
| 2026-04-30 07:10 | 11.85309 | 121.75891 | 3967 ft | 221 kts | 142° |
| 2026-04-30 07:10 | 11.84331 | 121.77024 | 3845 ft | 212 kts | 110° |
| 2026-04-30 07:10 | 11.84172 | 121.78435 | 3772 ft | 196 kts | 78° |
| 2026-04-30 07:11 | 11.84591 | 121.79743 | 3778 ft | 194 kts | 66° |
| 2026-04-30 07:11 | 11.85187 | 121.80975 | 3770 ft | 189 kts | 63° |
| 2026-04-30 07:11 | 11.85779 | 121.82114 | 3696 ft | 176 kts | 63° |
| 2026-04-30 07:11 | 11.86329 | 121.83185 | 3516 ft | 165 kts | 64° |
| 2026-04-30 07:12 | 11.86850 | 121.84216 | 3188 ft | 160 kts | 64° |
| 2026-04-30 07:12 | 11.87345 | 121.85206 | 2843 ft | 156 kts | 64° |
| 2026-04-30 07:12 | 11.87829 | 121.86175 | 2502 ft | 152 kts | 64° |
| 2026-04-30 07:12 | 11.88304 | 121.87125 | 2208 ft | 142 kts | 64° |
| 2026-04-30 07:13 | 11.88733 | 121.87982 | 2166 ft | 132 kts | 63° |
| 2026-04-30 07:13 | 11.89153 | 121.88810 | 1969 ft | 133 kts | 63° |
| 2026-04-30 07:13 | 11.89576 | 121.89642 | 1563 ft | 132 kts | 62° |
| 2026-04-30 07:13 | 11.90001 | 121.90464 | 1169 ft | 132 kts | 63° |
| 2026-04-30 07:14 | 11.90391 | 121.91287 | 858 ft | 128 kts | 64° |
| 2026-04-30 07:14 | 11.90807 | 121.92091 | 526 ft | 127 kts | 61° |
| 2026-04-30 07:14 | 11.91234 | 121.92880 | 288 ft | 124 kts | 66° |
| 2026-04-30 07:14 | 11.91597 | 121.93688 | 238 ft | 125 kts | 64° |
| 2026-04-30 07:15 | 11.91991 | 121.94479 | 145 ft | 125 kts | 63° |
| 2026-04-30 07:15 | 11.92387 | 121.95258 | 28 ft | 122 kts | 64° |
| 2026-04-30 07:15 | 11.92675 | 121.95860 | 19 ft | 55 kts | 67° |
| 2026-04-30 07:15 | 11.92724 | 121.95975 | 19 ft | 0 kts | 64° |
| 2026-04-30 07:16 | 11.92724 | 121.95976 | 19 ft | 0 kts | 63° |
| 2026-04-30 07:16 | 11.92732 | 121.95987 | 19 ft | 3 kts | 52° |
| 2026-04-30 07:16 | 11.92756 | 121.96019 | 19 ft | 7 kts | 56° |
| 2026-04-30 07:16 | 11.92791 | 121.96081 | 19 ft | 9 kts | 71° |
| 2026-04-30 07:17 | 11.92752 | 121.96137 | 19 ft | 11 kts | 152° |
| 2026-04-30 07:17 | 11.92689 | 121.96169 | 19 ft | 10 kts | 153° |
| 2026-04-30 07:17 | 11.92654 | 121.96279 | 19 ft | 4 kts | 126° |
| 2026-04-30 07:18 | 11.92637 | 121.96288 | 19 ft | 3 kts | 155° |
| 2026-04-30 07:18 | 11.92621 | 121.96297 | 19 ft | 0 kts | 155° |
| 2026-04-30 07:18 | 11.92617 | 121.96298 | 19 ft | 0 kts | 155° |